createdAt,value
2023-04-30T00:01:03.432Z,46.90
2023-04-30T00:06:00.125Z,47.22
2023-04-30T00:10:57.352Z,46.79
2023-04-30T00:15:54.065Z,48.28
2023-04-30T00:20:53.062Z,48.71
2023-04-30T00:25:49.706Z,49.45
2023-04-30T00:30:48.928Z,50.07
2023-04-30T00:35:45.585Z,50.45
2023-04-30T00:40:43.353Z,50.53
2023-04-30T00:45:40.612Z,51.28
2023-04-30T00:50:37.982Z,50.67
2023-04-30T00:55:35.956Z,50.85
2023-04-30T01:00:33.267Z,50.61
2023-04-30T01:05:30.259Z,49.62
2023-04-30T01:10:32.326Z,49.70
2023-04-30T01:15:31.451Z,48.85
2023-04-30T01:20:29.568Z,49.87
2023-04-30T01:25:44.834Z,48.87
2023-04-30T01:30:45.923Z,49.83
2023-04-30T01:35:57.658Z,50.04
2023-04-30T01:40:57.607Z,50.80
2023-04-30T01:46:00.148Z,50.47
2023-04-30T01:51:01.832Z,51.07
2023-04-30T01:56:02.151Z,50.99
2023-04-30T02:00:59.954Z,50.50
2023-04-30T02:05:58.483Z,50.16
2023-04-30T02:10:55.108Z,50.85
2023-04-30T02:15:54.386Z,50.56
2023-04-30T02:20:52.140Z,49.71
2023-04-30T02:25:48.958Z,48.14
2023-04-30T02:30:45.643Z,48.65
2023-04-30T02:35:42.324Z,49.61
2023-04-30T02:40:40.574Z,49.94
2023-04-30T02:45:37.498Z,50.99
2023-04-30T02:50:34.339Z,51.73
2023-04-30T02:55:32.396Z,52.11
2023-04-30T03:00:29.785Z,53.13
2023-04-30T03:05:27.203Z,53.36
2023-04-30T03:10:23.893Z,53.15
2023-04-30T03:15:21.022Z,54.48
2023-04-30T03:20:18.583Z,54.65
2023-04-30T03:25:15.313Z,54.48
2023-04-30T03:30:12.047Z,54.17
2023-04-30T03:35:08.931Z,53.97
2023-04-30T03:40:08.949Z,54.13
2023-04-30T03:45:06.391Z,54.37
2023-04-30T03:50:03.666Z,53.97
2023-04-30T03:55:00.320Z,52.63
2023-04-30T03:59:58.262Z,52.86
2023-04-30T04:04:54.825Z,52.11
2023-04-30T04:09:51.506Z,52.87
2023-04-30T04:14:48.353Z,54.00
2023-04-30T04:19:45.866Z,54.33
2023-04-30T04:24:43.446Z,53.95
2023-04-30T04:29:43.810Z,54.14
2023-04-30T04:34:40.388Z,54.08
2023-04-30T04:39:37.957Z,54.02
2023-04-30T04:44:34.685Z,55.39
2023-04-30T04:49:31.417Z,56.93
2023-04-30T04:54:28.232Z,56.90
2023-04-30T04:59:26.051Z,55.37
2023-04-30T05:04:22.717Z,57.36
2023-04-30T05:09:19.849Z,58.12
2023-04-30T05:14:16.692Z,58.82
2023-04-30T05:19:14.440Z,57.97
2023-04-30T05:24:11.057Z,58.22
2023-04-30T05:29:07.957Z,58.52
2023-04-30T05:34:04.633Z,58.51
2023-04-30T05:39:05.182Z,57.70
2023-04-30T05:44:04.456Z,56.63
2023-04-30T05:49:01.468Z,55.71
2023-04-30T05:53:58.154Z,54.37
2023-04-30T05:58:55.473Z,54.47
2023-04-30T06:03:52.390Z,54.52
2023-04-30T06:08:51.922Z,53.64
2023-04-30T06:13:48.807Z,51.94
2023-04-30T06:18:46.087Z,49.85
2023-04-30T06:23:42.736Z,50.15
2023-04-30T06:28:39.539Z,48.70
2023-04-30T06:33:36.488Z,49.09
2023-04-30T06:38:34.000Z,50.49
2023-04-30T06:43:30.689Z,50.48
2023-04-30T06:48:30.369Z,49.92
2023-04-30T06:53:27.051Z,50.54
2023-04-30T06:58:24.365Z,50.79
2023-04-30T07:03:21.199Z,50.49
2023-04-30T07:08:17.925Z,50.25
2023-04-30T07:13:15.930Z,49.73
2023-04-30T07:18:13.423Z,49.34
2023-04-30T07:23:11.560Z,49.34
2023-04-30T07:28:08.443Z,49.20
2023-04-30T07:33:05.198Z,48.94
2023-04-30T07:38:02.878Z,48.78
2023-04-30T07:42:59.366Z,47.60
2023-04-30T07:47:56.058Z,47.21
2023-04-30T07:52:52.636Z,45.59
2023-04-30T07:57:49.854Z,44.45
2023-04-30T08:02:47.956Z,45.13
2023-04-30T08:07:44.992Z,43.78
2023-04-30T08:12:41.673Z,44.11
2023-04-30T08:17:39.230Z,44.20
2023-04-30T08:22:36.070Z,43.10
2023-04-30T08:27:33.015Z,42.28
2023-04-30T08:32:29.974Z,42.98
2023-04-30T08:37:27.437Z,41.19
2023-04-30T08:42:26.278Z,42.39
2023-04-30T08:47:26.789Z,42.36
2023-04-30T08:52:24.749Z,41.85
2023-04-30T08:57:21.990Z,42.55
2023-04-30T09:02:18.641Z,41.63
2023-04-30T09:07:15.515Z,41.77
2023-04-30T09:12:14.372Z,42.32
2023-04-30T09:17:21.407Z,41.98
2023-04-30T09:22:21.796Z,39.81
2023-04-30T09:27:18.936Z,39.85
2023-04-30T09:32:18.814Z,38.89
2023-04-30T09:37:15.754Z,40.51
2023-04-30T09:42:12.439Z,39.68
2023-04-30T09:47:11.378Z,37.64
2023-04-30T09:52:09.047Z,38.16
2023-04-30T09:57:10.264Z,38.75
2023-04-30T10:02:07.874Z,37.33
2023-04-30T10:07:06.824Z,38.04
2023-04-30T10:12:05.852Z,37.23
2023-04-30T10:17:06.250Z,37.38
2023-04-30T10:22:03.396Z,37.44
2023-04-30T10:27:00.785Z,36.63
2023-04-30T10:31:58.563Z,36.79
2023-04-30T10:36:58.483Z,37.33
2023-04-30T10:42:01.125Z,37.29
2023-04-30T10:47:02.797Z,37.09
2023-04-30T10:52:00.059Z,37.36
2023-04-30T10:57:09.906Z,36.81
2023-04-30T11:02:11.021Z,36.76
2023-04-30T11:07:09.511Z,35.79
2023-04-30T11:12:10.801Z,35.27
2023-04-30T11:17:09.034Z,35.62
2023-04-30T11:22:22.397Z,34.58
2023-04-30T11:27:23.249Z,34.49
2023-04-30T11:32:21.266Z,35.11
2023-04-30T11:37:19.468Z,34.97
2023-04-30T11:42:18.714Z,34.93
2023-04-30T11:47:16.159Z,34.08
2023-04-30T11:52:13.714Z,34.96
2023-04-30T11:57:10.519Z,35.29
2023-04-30T12:02:07.627Z,35.68
2023-04-30T12:07:08.124Z,35.28
2023-04-30T12:12:05.722Z,35.18
2023-04-30T12:17:02.434Z,34.76
2023-04-30T12:22:01.980Z,35.81
2023-04-30T12:26:59.630Z,35.51
2023-04-30T12:31:57.524Z,34.56
2023-04-30T12:36:58.108Z,34.94
2023-04-30T12:41:54.979Z,35.00
2023-04-30T12:46:55.995Z,35.66
2023-04-30T12:51:56.658Z,35.66
2023-04-30T12:57:00.993Z,34.88
2023-04-30T13:02:05.865Z,35.48
2023-04-30T13:07:04.056Z,35.31
2023-04-30T13:12:01.149Z,36.54
2023-04-30T13:16:58.306Z,35.82
2023-04-30T13:21:54.908Z,35.42
2023-04-30T13:26:52.172Z,35.63
2023-04-30T13:31:49.426Z,35.87
2023-04-30T13:36:46.584Z,35.99
2023-04-30T13:41:43.333Z,35.41
2023-04-30T13:46:40.952Z,35.31
2023-04-30T13:51:37.726Z,34.79
2023-04-30T13:56:36.437Z,35.46
2023-04-30T14:01:33.761Z,34.52
2023-04-30T14:06:31.529Z,34.24
2023-04-30T14:11:28.240Z,34.67
2023-04-30T14:16:28.277Z,34.71
2023-04-30T14:21:25.062Z,34.45
2023-04-30T14:26:22.576Z,33.79
2023-04-30T14:31:19.451Z,34.19
2023-04-30T14:36:16.199Z,34.10
2023-04-30T14:41:12.989Z,33.98
2023-04-30T14:46:11.249Z,34.31
2023-04-30T14:51:08.055Z,33.26
2023-04-30T14:56:06.495Z,33.72
2023-04-30T15:01:03.218Z,34.03
2023-04-30T15:06:00.637Z,33.89
2023-04-30T15:10:59.261Z,32.85
2023-04-30T15:15:56.063Z,32.47
2023-04-30T15:20:53.270Z,33.14
2023-04-30T15:25:53.635Z,32.50
2023-04-30T15:30:51.199Z,32.66
2023-04-30T15:35:48.271Z,32.81
2023-04-30T15:40:45.040Z,33.09
2023-04-30T15:45:42.517Z,33.70
2023-04-30T15:50:39.225Z,33.92
2023-04-30T15:55:36.282Z,34.00
2023-04-30T16:00:33.453Z,33.83
2023-04-30T16:05:31.028Z,34.06
2023-04-30T16:10:27.887Z,34.36
2023-04-30T16:15:25.165Z,34.37
2023-04-30T16:20:27.055Z,34.75
2023-04-30T16:25:24.410Z,34.44
2023-04-30T16:30:21.249Z,34.33
2023-04-30T16:35:18.064Z,34.63
2023-04-30T16:40:14.819Z,34.98
2023-04-30T16:45:12.284Z,35.36
2023-04-30T16:50:09.148Z,35.52
2023-04-30T16:55:06.668Z,35.83
2023-04-30T17:00:05.865Z,35.67
2023-04-30T17:05:03.461Z,36.11
2023-04-30T17:10:00.263Z,35.79
2023-04-30T17:14:57.246Z,35.68
2023-04-30T17:19:54.363Z,35.92
2023-04-30T17:24:51.932Z,36.10
2023-04-30T17:29:48.715Z,35.74
2023-04-30T17:34:45.903Z,36.27
2023-04-30T17:39:42.869Z,39.77
2023-04-30T17:44:40.628Z,41.43
2023-04-30T17:49:37.301Z,39.44
2023-04-30T17:54:34.075Z,39.10
2023-04-30T17:59:30.929Z,38.95
2023-04-30T18:04:28.219Z,38.94
2023-04-30T18:09:25.438Z,38.88
2023-04-30T18:14:22.280Z,38.70
2023-04-30T18:19:19.115Z,39.04
2023-04-30T18:24:17.063Z,39.14
2023-04-30T18:29:15.638Z,39.03
2023-04-30T18:34:17.096Z,38.70
2023-04-30T18:39:14.174Z,38.52
2023-04-30T18:44:12.954Z,38.61
2023-04-30T18:49:09.624Z,38.64
2023-04-30T18:54:06.363Z,39.24
2023-04-30T18:59:03.182Z,39.20
2023-04-30T19:04:00.973Z,39.08
2023-04-30T19:08:59.168Z,39.08
2023-04-30T19:13:55.817Z,40.29
2023-04-30T19:18:52.614Z,39.56
2023-04-30T19:23:50.108Z,40.71
2023-04-30T19:28:47.420Z,44.81
2023-04-30T19:33:45.811Z,46.50
2023-04-30T19:38:42.637Z,49.13
2023-04-30T19:43:40.086Z,48.66
2023-04-30T19:48:36.875Z,48.48
2023-04-30T19:53:33.615Z,47.94
2023-04-30T19:58:30.428Z,47.94
2023-04-30T20:03:28.240Z,47.23
2023-04-30T20:08:24.964Z,46.82
2023-04-30T20:13:23.829Z,48.23
2023-04-30T20:18:20.573Z,48.75
2023-04-30T20:23:18.668Z,49.37
2023-04-30T20:28:15.786Z,50.41
2023-04-30T20:33:13.408Z,50.95
2023-04-30T20:38:10.261Z,50.01
2023-04-30T20:43:09.361Z,51.18
2023-04-30T20:48:06.891Z,50.39
2023-04-30T20:53:03.576Z,52.33
2023-04-30T20:58:01.152Z,53.10
2023-04-30T21:02:58.760Z,52.09
2023-04-30T21:08:00.362Z,51.58
2023-04-30T21:12:57.218Z,51.90
2023-04-30T21:17:54.498Z,51.29
2023-04-30T21:22:54.704Z,51.25
2023-04-30T21:27:52.121Z,51.19
2023-04-30T21:32:49.079Z,50.59
2023-04-30T21:37:45.733Z,50.19
2023-04-30T21:42:43.095Z,49.67
2023-04-30T21:47:39.770Z,49.51
2023-04-30T21:52:36.426Z,49.80
2023-04-30T21:57:33.034Z,50.10
2023-04-30T22:02:32.437Z,49.40
2023-04-30T22:07:29.157Z,50.00
2023-04-30T22:12:26.201Z,49.39
2023-04-30T22:17:23.172Z,49.09
2023-04-30T22:22:20.599Z,51.65
2023-04-30T22:27:17.444Z,53.04
2023-04-30T22:32:14.139Z,51.90
2023-04-30T22:37:13.635Z,52.53
2023-04-30T22:42:11.000Z,53.31
2023-04-30T22:47:07.740Z,54.92
2023-04-30T22:52:04.483Z,58.62
2023-04-30T22:57:01.154Z,57.18
2023-04-30T23:02:01.625Z,57.14
2023-04-30T23:06:58.652Z,58.77
2023-04-30T23:11:55.297Z,59.93
2023-04-30T23:16:52.201Z,59.74
2023-04-30T23:21:49.537Z,59.20
2023-04-30T23:26:46.636Z,58.42
2023-04-30T23:31:43.319Z,58.20
2023-04-30T23:36:40.661Z,59.13
2023-04-30T23:41:37.865Z,58.46
2023-04-30T23:46:34.605Z,57.68
2023-04-30T23:51:32.048Z,57.08
2023-04-30T23:56:29.014Z,56.18
